Time;durP1;ratioP1;P1;durP2;ratioP2;P2;SDS_P1;SDS_P2;PMS_P1;PMS_P2;Temp;Humidity;BMP_temperature;BMP_pressure;BME280_temperature;BME280_humidity;BME280_pressure;Samples;Min_cycle;Max_cycle;Signal;HPM_P1;HPM_P2
2024/02/29 00:03:19;;;;;;;2.17;1.48;;;24.50;42.70;;;;;;10351489;28;20146;-54
2024/02/29 00:08:20;;;;;;;2.42;1.65;;;24.50;42.60;;;;;;10353726;28;20133;-52
2024/02/29 00:13:22;;;;;;;1.67;1.40;;;24.30;42.70;;;;;;10352868;28;20117;-51
2024/02/29 00:18:25;;;;;;;3.35;1.40;;;24.20;43.00;;;;;;10349256;28;20529;-51
2024/02/29 00:23:26;;;;;;;3.13;1.50;;;24.20;43.00;;;;;;10354750;28;20607;-53
2024/02/29 00:28:28;;;;;;;2.78;1.55;;;24.10;43.00;;;;;;10355991;28;20596;-53
2024/02/29 00:33:31;;;;;;;3.00;1.40;;;24.10;43.20;;;;;;10357871;28;20120;-53
2024/02/29 00:38:32;;;;;;;2.35;1.40;;;24.00;43.30;;;;;;10354696;28;20164;-52
2024/02/29 00:43:34;;;;;;;1.70;1.50;;;24.00;43.30;;;;;;10352640;28;20127;-51
2024/02/29 00:48:37;;;;;;;1.80;1.40;;;23.90;43.30;;;;;;10356326;28;20057;-50
2024/02/29 00:53:40;;;;;;;2.17;1.48;;;23.90;43.30;;;;;;10361744;28;20042;-53
2024/02/29 00:58:42;;;;;;;1.30;1.20;;;23.80;43.40;;;;;;10362781;28;20128;-55
2024/02/29 01:03:45;;;;;;;2.60;1.50;;;23.80;43.30;;;;;;10356291;28;20467;-53
2024/02/29 01:08:46;;;;;;;1.92;1.30;;;23.80;43.30;;;;;;10359722;28;20128;-53
2024/02/29 01:13:48;;;;;;;2.97;1.45;;;23.80;43.40;;;;;;10356239;28;20053;-54
2024/02/29 01:18:51;;;;;;;1.88;1.30;;;23.70;43.40;;;;;;10344958;28;20092;-52
2024/02/29 01:23:53;;;;;;;1.50;1.20;;;23.70;43.50;;;;;;10356312;28;20059;-53
2024/02/29 01:28:54;;;;;;;2.45;1.33;;;23.60;43.50;;;;;;10359069;28;20109;-55
2024/02/29 01:33:57;;;;;;;1.90;1.33;;;23.60;43.60;;;;;;10355623;28;20066;-53
2024/02/29 01:38:59;;;;;;;1.73;1.42;;;23.60;43.50;;;;;;10364505;28;20133;-53
2024/02/29 01:44:00;;;;;;;1.55;1.30;;;23.60;43.40;;;;;;10361039;28;20141;-52
2024/02/29 01:49:03;;;;;;;1.67;1.10;;;23.50;43.50;;;;;;10364124;28;20065;-56
2024/02/29 01:54:05;;;;;;;2.00;1.30;;;23.50;43.50;;;;;;10360241;28;20530;-51
2024/02/29 01:59:07;;;;;;;1.30;1.20;;;23.50;43.70;;;;;;10359284;28;20042;-52
2024/02/29 02:04:10;;;;;;;1.20;1.10;;;23.50;43.60;;;;;;10358965;28;20085;-55
2024/02/29 02:09:11;;;;;;;1.55;1.25;;;23.50;43.70;;;;;;10360557;28;20138;-54
2024/02/29 02:14:13;;;;;;;1.38;1.27;;;23.40;43.80;;;;;;10358863;28;20500;-54
2024/02/29 02:19:16;;;;;;;1.25;1.15;;;23.40;43.80;;;;;;10355647;28;20550;-54
2024/02/29 02:24:20;;;;;;;1.25;1.15;;;23.30;43.80;;;;;;10354528;28;20050;-54
2024/02/29 02:29:22;;;;;;;1.25;1.15;;;23.30;43.80;;;;;;10355718;28;20097;-53
2024/02/29 02:34:24;;;;;;;1.40;1.20;;;23.30;43.90;;;;;;10357230;28;20149;-55
2024/02/29 02:39:27;;;;;;;1.30;1.20;;;23.30;43.80;;;;;;10356476;28;20527;-54
2024/02/29 02:44:28;;;;;;;1.60;1.33;;;23.30;43.80;;;;;;10357685;28;20133;-54
2024/02/29 02:49:30;;;;;;;1.77;1.30;;;23.30;43.80;;;;;;10355921;28;20136;-54
2024/02/29 02:54:33;;;;;;;1.42;1.20;;;23.30;43.90;;;;;;10361089;28;20569;-56
2024/02/29 02:59:35;;;;;;;1.35;1.10;;;23.30;43.80;;;;;;10359920;28;20516;-57
2024/02/29 03:04:36;;;;;;;2.03;1.40;;;23.20;43.90;;;;;;10360617;28;20141;-56
2024/02/29 03:09:39;;;;;;;1.33;1.20;;;23.20;44.00;;;;;;10353491;28;20053;-52
2024/02/29 03:14:41;;;;;;;1.30;1.17;;;23.20;44.00;;;;;;10359905;28;20050;-52
2024/02/29 03:19:43;;;;;;;1.50;1.30;;;23.10;43.90;;;;;;10355322;28;20480;-54
2024/02/29 03:24:46;;;;;;;1.13;1.02;;;23.10;44.00;;;;;;10354360;28;20493;-54
2024/02/29 03:29:47;;;;;;;1.20;1.10;;;23.10;44.00;;;;;;10351530;28;20050;-55
2024/02/29 03:34:49;;;;;;;1.15;1.05;;;23.00;44.00;;;;;;10354145;28;20136;-53
2024/02/29 03:39:52;;;;;;;1.45;1.35;;;23.10;43.90;;;;;;10352286;28;20077;-55
2024/02/29 03:44:54;;;;;;;1.30;1.20;;;23.00;44.00;;;;;;10355786;28;20467;-54
2024/02/29 03:49:55;;;;;;;1.30;1.20;;;23.00;44.00;;;;;;10352985;28;20141;-56
2024/02/29 03:54:58;;;;;;;1.58;1.48;;;23.00;43.90;;;;;;10356313;28;20084;-49
2024/02/29 04:00:00;;;;;;;1.30;1.20;;;23.00;44.00;;;;;;10353075;28;20129;-51
2024/02/29 04:05:01;;;;;;;1.10;1.00;;;23.00;43.90;;;;;;10358373;28;20130;-49
2024/02/29 04:10:05;;;;;;;1.23;1.13;;;23.30;43.70;;;;;;10356284;28;20048;-49
2024/02/29 04:15:07;;;;;;;1.20;1.10;;;23.60;43.00;;;;;;10356959;28;20057;-54
2024/02/29 04:20:09;;;;;;;1.10;1.00;;;23.60;42.90;;;;;;10360470;28;20042;-52
2024/02/29 04:25:12;;;;;;;1.30;1.10;;;23.70;42.70;;;;;;10363398;28;20065;-51
2024/02/29 04:30:14;;;;;;;1.10;1.00;;;23.80;42.40;;;;;;10362641;28;20046;-48
2024/02/29 04:35:16;;;;;;;1.10;1.00;;;23.70;42.60;;;;;;10359803;28;20122;-49
2024/02/29 04:40:19;;;;;;;1.10;1.00;;;23.60;42.90;;;;;;10355602;28;20045;-49
2024/02/29 04:45:23;;;;;;;1.65;1.00;;;23.60;43.10;;;;;;10362159;28;20501;-49
2024/02/29 04:50:24;;;;;;;1.30;1.00;;;24.00;42.50;;;;;;10365953;28;20046;-49
2024/02/29 04:55:27;;;;;;;1.13;1.00;;;24.00;42.40;;;;;;10366556;28;20504;-51
2024/02/29 05:00:32;;;;;;;1.00;0.90;;;23.80;42.80;;;;;;10358238;28;20389;-49
2024/02/29 05:05:34;;;;;;;2.45;0.90;;;23.90;42.60;;;;;;10361091;28;20141;-48
2024/02/29 05:10:37;;;;;;;1.20;0.98;;;23.80;42.90;;;;;;10362977;28;20052;-48
2024/02/29 05:15:39;;;;;;;1.27;0.95;;;24.10;42.40;;;;;;10366524;28;20427;-48
2024/02/29 05:20:40;;;;;;;1.10;1.00;;;23.90;42.50;;;;;;10364187;28;20057;-48
2024/02/29 05:25:43;;;;;;;1.13;0.90;;;23.80;43.10;;;;;;10363402;28;20050;-48
2024/02/29 05:30:45;;;;;;;0.80;0.80;;;23.60;43.40;;;;;;10363842;28;20064;-49
2024/02/29 05:35:50;;;;;;;1.42;1.00;;;24.10;42.80;;;;;;10360083;28;20080;-49
2024/02/29 05:40:53;;;;;;;1.30;1.10;;;24.40;41.90;;;;;;10361730;28;20049;-52
2024/02/29 05:45:55;;;;;;;0.80;0.80;;;24.30;41.90;;;;;;10355681;28;20140;-52
2024/02/29 05:50:57;;;;;;;1.75;1.00;;;24.00;42.90;;;;;;10352320;28;20503;-52
2024/02/29 05:56:00;;;;;;;2.35;1.30;;;23.80;43.20;;;;;;10347713;28;20566;-54
2024/02/29 06:01:02;;;;;;;2.55;1.00;;;24.00;42.90;;;;;;10363195;28;20522;-48
2024/02/29 06:06:04;;;;;;;1.67;0.90;;;24.00;42.80;;;;;;10364874;28;20133;-52
2024/02/29 06:11:06;;;;;;;11.65;2.40;;;24.20;42.30;;;;;;10363002;28;20129;-49
2024/02/29 06:16:08;;;;;;;17.77;2.78;;;24.20;42.30;;;;;;10353238;28;20587;-53
2024/02/29 06:21:10;;;;;;;9.18;2.45;;;24.20;42.40;;;;;;10354800;28;20077;-52
2024/02/29 06:26:13;;;;;;;10.88;2.10;;;24.10;42.60;;;;;;10364996;28;20104;-48
2024/02/29 06:31:15;;;;;;;9.13;2.08;;;24.10;42.60;;;;;;10362292;28;20084;-52
2024/02/29 06:36:16;;;;;;;11.80;2.13;;;24.00;43.50;;;;;;10362430;28;20760;-54
2024/02/29 06:41:19;;;;;;;5.68;2.10;;;24.00;44.00;;;;;;10360238;28;20133;-48
2024/02/29 06:46:21;;;;;;;5.28;1.80;;;24.10;44.10;;;;;;10355323;28;20459;-47
2024/02/29 06:51:23;;;;;;;8.93;2.10;;;24.00;43.70;;;;;;10359449;28;20129;-53
2024/02/29 06:56:26;;;;;;;10.25;2.58;;;24.00;43.80;;;;;;10358495;28;20444;-48
2024/02/29 07:01:30;;;;;;;25.35;5.32;;;24.10;44.10;;;;;;10358037;28;20087;-48
2024/02/29 07:06:32;;;;;;;21.17;5.40;;;24.00;45.60;;;;;;10356078;28;20053;-48
2024/02/29 07:11:35;;;;;;;17.80;4.80;;;24.10;45.50;;;;;;10357449;28;20133;-49
2024/02/29 07:16:38;;;;;;;16.17;4.50;;;24.20;45.40;;;;;;10356000;28;20494;-49
2024/02/29 07:21:41;;;;;;;15.55;4.40;;;24.20;44.20;;;;;;10359367;28;20059;-48
2024/02/29 07:26:45;;;;;;;8.77;3.22;;;24.00;44.80;;;;;;10355313;28;20145;-51
2024/02/29 07:31:47;;;;;;;11.45;3.58;;;24.10;44.40;;;;;;10351644;28;20057;-50
2024/02/29 07:36:49;;;;;;;10.48;3.55;;;24.30;44.00;;;;;;10351312;28;20393;-49
2024/02/29 07:41:52;;;;;;;7.00;3.00;;;24.30;43.70;;;;;;10362509;28;20061;-48
2024/02/29 09:18:08;;;;;;;5.55;2.22;;;23.30;42.60;;;;;;10352451;28;20480;-52
2024/02/29 09:23:09;;;;;;;4.57;2.22;;;23.40;42.60;;;;;;10354449;28;20497;-49
2024/02/29 09:28:11;;;;;;;3.67;2.05;;;23.50;42.50;;;;;;10353689;28;20046;-51
2024/02/29 09:33:14;;;;;;;2.80;2.08;;;23.50;42.40;;;;;;10351909;28;20034;-47
2024/02/29 09:38:16;;;;;;;3.92;2.30;;;23.50;42.30;;;;;;10351517;28;20045;-50
2024/02/29 09:43:18;;;;;;;3.25;1.90;;;23.50;42.30;;;;;;10351690;28;20100;-48
2024/02/29 09:48:21;;;;;;;4.15;2.00;;;23.50;42.20;;;;;;10341141;28;20046;-50
2024/02/29 09:53:22;;;;;;;3.33;2.10;;;23.50;42.50;;;;;;10350571;28;20038;-49
2024/02/29 09:58:24;;;;;;;3.25;1.85;;;23.50;42.00;;;;;;10348871;28;20125;-48
2024/02/29 10:03:27;;;;;;;3.50;2.00;;;23.50;41.90;;;;;;10355006;28;20161;-50
2024/02/29 10:08:29;;;;;;;4.88;2.03;;;23.50;42.10;;;;;;10358935;28;20556;-52
2024/02/29 10:13:37;;;;;;;3.55;1.98;;;23.50;42.00;;;;;;10354297;28;20065;-48
2024/02/29 10:18:40;;;;;;;3.30;1.85;;;23.60;41.80;;;;;;10350135;28;20073;-50
2024/02/29 10:23:42;;;;;;;3.78;2.08;;;23.50;41.70;;;;;;10350286;28;20120;-48
2024/02/29 10:28:44;;;;;;;2.10;1.50;;;23.50;41.80;;;;;;10353404;28;20046;-47
2024/02/29 10:33:49;;;;;;;2.03;1.50;;;23.50;41.70;;;;;;10354880;28;20038;-49
2024/02/29 10:38:51;;;;;;;2.80;1.67;;;23.60;41.50;;;;;;10354316;28;20056;-51
2024/02/29 10:43:52;;;;;;;5.68;1.80;;;23.60;41.50;;;;;;10351611;28;20053;-56
2024/02/29 10:48:58;;;;;;;5.65;1.52;;;23.70;41.30;;;;;;10345568;28;20489;-54
2024/02/29 10:54:04;;;;;;;3.17;1.42;;;23.60;41.60;;;;;;10344755;28;20065;-54
2024/02/29 10:59:07;;;;;;;2.75;1.42;;;23.60;41.50;;;;;;10346883;28;20042;-54
2024/02/29 11:04:10;;;;;;;3.17;1.60;;;23.70;41.40;;;;;;10352776;28;20054;-53
2024/02/29 11:09:12;;;;;;;2.28;1.50;;;23.80;41.30;;;;;;10349689;28;20140;-55
2024/02/29 11:14:15;;;;;;;2.85;1.50;;;23.70;41.20;;;;;;10356394;28;20136;-54
2024/02/29 11:19:18;;;;;;;1.73;1.40;;;23.80;41.30;;;;;;10358045;28;20085;-54
2024/02/29 11:24:21;;;;;;;1.30;1.20;;;23.80;41.40;;;;;;10356611;28;20090;-53
2024/02/29 11:29:22;;;;;;;2.38;1.40;;;23.80;41.30;;;;;;10355002;28;20403;-55
2024/02/29 11:34:27;;;;;;;1.35;1.23;;;23.90;41.20;;;;;;10357818;28;20061;-48
2024/02/29 11:39:29;;;;;;;1.77;1.30;;;24.10;41.00;;;;;;10353597;28;20061;-53
2024/02/29 11:44:31;;;;;;;2.15;1.33;;;24.20;41.00;;;;;;10357145;28;20140;-49
2024/02/29 11:49:33;;;;;;;3.88;1.33;;;24.20;40.90;;;;;;10357501;28;20146;-50
2024/02/29 11:54:35;;;;;;;2.08;1.23;;;24.30;41.00;;;;;;10352252;28;20134;-53
2024/02/29 11:59:38;;;;;;;1.25;1.10;;;24.30;40.90;;;;;;10352928;28;20141;-51
2024/02/29 12:04:41;;;;;;;1.20;1.10;;;24.40;40.80;;;;;;10349419;28;20245;-56
2024/02/29 12:09:42;;;;;;;2.13;1.30;;;24.30;40.90;;;;;;10352286;28;20072;-50
2024/02/29 12:14:45;;;;;;;2.60;1.00;;;24.40;40.90;;;;;;10354616;28;20046;-54
2024/02/29 12:19:48;;;;;;;4.53;1.13;;;24.40;41.00;;;;;;10354322;28;20077;-52
2024/02/29 12:24:50;;;;;;;1.63;0.98;;;24.30;41.20;;;;;;10352910;28;20133;-48
2024/02/29 12:29:52;;;;;;;1.40;1.13;;;24.30;41.50;;;;;;10358813;28;20064;-52
2024/02/29 12:34:55;;;;;;;2.45;1.13;;;24.30;41.30;;;;;;10355467;28;20149;-53
2024/02/29 12:39:56;;;;;;;1.38;1.17;;;24.20;41.50;;;;;;10351922;28;20046;-48
2024/02/29 12:44:59;;;;;;;3.45;1.20;;;24.30;41.60;;;;;;10361736;28;20046;-52
2024/02/29 12:50:02;;;;;;;6.00;1.23;;;24.30;41.50;;;;;;10361473;28;20056;-49
2024/02/29 12:55:04;;;;;;;1.70;0.90;;;24.30;41.60;;;;;;10360444;28;20046;-53
2024/02/29 13:00:07;;;;;;;2.45;1.00;;;24.20;41.60;;;;;;10359298;28;20132;-51
2024/02/29 13:05:10;;;;;;;1.35;1.10;;;24.10;42.00;;;;;;10361171;28;20050;-48
2024/02/29 13:10:12;;;;;;;2.80;0.88;;;24.10;42.30;;;;;;10357468;28;20460;-48
2024/02/29 13:15:13;;;;;;;2.70;1.13;;;23.90;42.90;;;;;;10357762;28;20046;-50
2024/02/29 13:20:19;;;;;;;5.05;2.08;;;23.50;44.10;;;;;;10361685;28;20050;-48
2024/02/29 13:25:20;;;;;;;7.70;2.33;;;23.50;44.60;;;;;;10361978;28;20071;-48
2024/02/29 13:30:22;;;;;;;7.60;2.17;;;23.50;45.30;;;;;;10360023;28;20137;-49
2024/02/29 13:35:26;;;;;;;6.43;2.42;;;23.40;45.60;;;;;;10358986;28;20591;-50
2024/02/29 13:40:28;;;;;;;6.50;2.50;;;23.50;45.70;;;;;;10365528;28;20054;-52
2024/02/29 13:45:29;;;;;;;8.25;2.97;;;23.50;46.00;;;;;;10364404;28;20050;-48
2024/02/29 13:50:32;;;;;;;11.00;2.83;;;23.70;45.70;;;;;;10360651;28;20145;-48
2024/02/29 13:55:34;;;;;;;6.53;2.40;;;23.60;45.70;;;;;;10362545;28;20054;-50
2024/02/29 14:00:35;;;;;;;7.95;3.03;;;23.80;45.40;;;;;;10363554;28;20516;-52
2024/02/29 14:05:38;;;;;;;7.07;3.03;;;23.90;45.20;;;;;;10360620;28;20402;-51
2024/02/29 14:10:40;;;;;;;8.18;2.80;;;23.90;45.30;;;;;;10354514;28;20048;-48
2024/02/29 14:15:42;;;;;;;5.68;2.60;;;23.90;45.20;;;;;;10350251;28;20077;-50
2024/02/29 14:20:45;;;;;;;4.75;2.47;;;23.50;45.90;;;;;;10350359;28;20152;-49
2024/02/29 14:25:47;;;;;;;4.30;2.33;;;23.50;46.00;;;;;;10354776;28;20050;-51
2024/02/29 14:30:48;;;;;;;4.25;2.30;;;23.50;46.20;;;;;;10362670;28;20049;-52
2024/02/29 14:35:51;;;;;;;4.50;2.10;;;23.40;46.30;;;;;;10360422;28;20052;-51
2024/02/29 14:40:53;;;;;;;5.18;2.30;;;23.30;46.70;;;;;;10353601;28;20136;-54
2024/02/29 14:45:54;;;;;;;5.00;2.00;;;23.50;46.30;;;;;;10358193;28;20050;-50
2024/02/29 14:50:57;;;;;;;6.28;2.40;;;23.60;45.70;;;;;;10364420;28;20136;-54
2024/02/29 14:55:59;;;;;;;3.15;1.85;;;23.90;45.30;;;;;;10361045;28;20057;-51
2024/02/29 15:01:00;;;;;;;4.00;2.03;;;23.90;44.90;;;;;;10359484;28;20149;-50
2024/02/29 15:06:04;;;;;;;4.45;2.13;;;24.00;44.70;;;;;;10356769;28;20563;-51
2024/02/29 15:11:07;;;;;;;4.32;2.00;;;24.00;44.50;;;;;;10362238;28;20599;-52
2024/02/29 15:16:09;;;;;;;4.15;2.10;;;24.10;44.30;;;;;;10358020;28;20786;-53
2024/02/29 15:21:12;;;;;;;4.45;2.00;;;24.20;43.90;;;;;;10354678;28;20069;-52
2024/02/29 15:26:14;;;;;;;4.25;1.83;;;24.20;44.10;;;;;;10348140;28;20129;-52
2024/02/29 15:31:15;;;;;;;3.97;1.83;;;24.10;44.00;;;;;;10340460;28;20567;-56
2024/02/29 15:36:18;;;;;;;3.35;2.00;;;24.40;43.50;;;;;;10349146;28;20519;-54
2024/02/29 15:41:20;;;;;;;2.78;2.00;;;24.70;42.80;;;;;;10355472;28;20148;-53
2024/02/29 15:46:22;;;;;;;3.42;1.65;;;24.80;42.50;;;;;;10355335;28;20137;-54
2024/02/29 15:51:25;;;;;;;4.28;1.60;;;24.90;42.30;;;;;;10354241;28;20108;-54
2024/02/29 15:56:26;;;;;;;3.03;1.83;;;24.80;42.20;;;;;;10356452;28;20045;-50
2024/02/29 16:01:28;;;;;;;3.15;1.80;;;24.80;42.50;;;;;;10355243;28;20038;-52
2024/02/29 16:06:31;;;;;;;3.10;2.00;;;24.80;42.00;;;;;;10358702;28;20057;-55
2024/02/29 16:11:33;;;;;;;3.03;1.52;;;24.70;42.20;;;;;;10351606;28;20145;-50
2024/02/29 16:16:35;;;;;;;3.13;1.60;;;24.60;42.30;;;;;;10343545;28;20045;-53
2024/02/29 16:21:38;;;;;;;2.30;1.48;;;24.60;42.60;;;;;;10352998;28;20681;-51
2024/02/29 16:26:39;;;;;;;3.35;1.77;;;24.50;42.50;;;;;;10354227;28;20141;-51
2024/02/29 16:31:41;;;;;;;2.85;1.50;;;24.40;42.70;;;;;;10316244;28;1033815;-50
2024/02/29 16:36:45;;;;;;;3.33;1.65;;;24.20;42.80;;;;;;10346229;28;20136;-55
2024/02/29 16:41:47;;;;;;;2.30;1.52;;;24.30;42.80;;;;;;10349121;28;20132;-51
2024/02/29 16:46:48;;;;;;;3.65;1.60;;;24.30;42.80;;;;;;10350446;28;20496;-55
2024/02/29 16:51:51;;;;;;;2.05;1.52;;;24.20;42.90;;;;;;10349922;28;20145;-50
2024/02/29 16:56:53;;;;;;;1.95;1.60;;;24.20;42.80;;;;;;10354923;28;20140;-53
2024/02/29 17:01:54;;;;;;;1.70;1.30;;;24.10;42.80;;;;;;10357007;28;20062;-55
2024/02/29 17:06:57;;;;;;;2.05;1.60;;;24.10;42.80;;;;;;10351445;28;20042;-52
2024/02/29 17:11:59;;;;;;;1.98;1.40;;;24.10;42.80;;;;;;10352241;28;20096;-54
2024/02/29 17:17:02;;;;;;;2.45;1.23;;;24.00;43.00;;;;;;10359250;28;20136;-54
2024/02/29 17:22:06;;;;;;;3.10;1.45;;;24.00;42.90;;;;;;10352863;28;20054;-53
2024/02/29 17:27:07;;;;;;;1.67;1.20;;;24.00;42.80;;;;;;10353924;28;20136;-53
2024/02/29 17:32:09;;;;;;;1.65;1.38;;;24.00;42.90;;;;;;10361983;28;20080;-52
2024/02/29 17:37:12;;;;;;;6.53;1.63;;;24.10;42.80;;;;;;10359071;28;20048;-50
2024/02/29 17:42:13;;;;;;;6.68;1.98;;;24.00;42.70;;;;;;10357864;28;20223;-52
2024/02/29 17:47:15;;;;;;;4.20;1.60;;;24.00;43.10;;;;;;10360238;28;20133;-55
2024/02/29 17:52:18;;;;;;;3.58;1.65;;;24.00;43.40;;;;;;10360277;28;20502;-53
2024/02/29 17:57:20;;;;;;;1.50;1.40;;;24.20;43.10;;;;;;10358988;28;20149;-55
2024/02/29 18:02:21;;;;;;;5.63;1.70;;;24.10;43.20;;;;;;10352460;28;20148;-54
2024/02/29 18:07:25;;;;;;;6.15;1.80;;;24.20;43.30;;;;;;10348082;28;20054;-55
2024/02/29 18:12:30;;;;;;;1.77;1.45;;;24.20;43.20;;;;;;10357311;28;20050;-54
2024/02/29 18:17:32;;;;;;;3.25;1.52;;;24.20;43.30;;;;;;10356563;28;20050;-56
2024/02/29 18:22:35;;;;;;;2.92;1.50;;;24.30;43.20;;;;;;10353587;28;20475;-54
2024/02/29 18:27:37;;;;;;;2.58;1.65;;;24.30;43.20;;;;;;10358966;28;20077;-54
2024/02/29 18:32:38;;;;;;;9.35;1.60;;;24.40;43.30;;;;;;10362997;28;20148;-53
2024/02/29 18:37:41;;;;;;;2.58;1.45;;;24.50;42.90;;;;;;10359327;28;20161;-51
2024/02/29 18:42:43;;;;;;;3.35;1.80;;;24.30;43.10;;;;;;10358658;28;20053;-54
2024/02/29 18:47:45;;;;;;;6.70;3.25;;;24.50;43.30;;;;;;10350670;28;20495;-53
2024/02/29 18:52:48;;;;;;;6.93;3.90;;;24.30;40.70;;;;;;10357024;28;20117;-54
2024/02/29 18:57:49;;;;;;;6.28;3.15;;;24.20;40.10;;;;;;10360062;28;20133;-52
2024/02/29 19:02:51;;;;;;;6.53;3.70;;;24.10;39.80;;;;;;10356202;28;20140;-54
2024/02/29 19:07:54;;;;;;;6.65;3.50;;;24.10;38.70;;;;;;10355322;28;20236;-57
2024/02/29 19:12:55;;;;;;;7.30;3.50;;;24.10;38.00;;;;;;10355998;28;20056;-56
2024/02/29 19:17:57;;;;;;;5.97;4.00;;;24.30;37.60;;;;;;10359007;28;20068;-55
2024/02/29 19:23:00;;;;;;;6.20;4.28;;;24.10;37.20;;;;;;10334784;28;20042;-56
2024/02/29 19:28:02;;;;;;;6.38;4.60;;;23.80;36.90;;;;;;10344870;28;20053;-53
2024/02/29 19:33:04;;;;;;;5.30;4.80;;;23.80;36.90;;;;;;10349520;28;20129;-55
2024/02/29 19:38:07;;;;;;;6.78;4.93;;;23.60;36.80;;;;;;10359464;28;20411;-52
2024/02/29 19:43:09;;;;;;;5.32;3.45;;;24.00;36.50;;;;;;10358919;28;20078;-50
2024/02/29 19:48:10;;;;;;;5.55;3.78;;;24.00;37.70;;;;;;10355894;28;20581;-54
2024/02/29 19:53:13;;;;;;;6.97;3.35;;;24.10;37.80;;;;;;10354437;28;20152;-57
2024/02/29 19:58:17;;;;;;;3.90;2.90;;;24.10;38.50;;;;;;10351088;28;20076;-48
2024/02/29 20:03:18;;;;;;;10.30;3.28;;;24.10;38.90;;;;;;10348254;28;20049;-52
2024/02/29 20:08:21;;;;;;;8.20;2.67;;;24.00;40.10;;;;;;10356335;28;20125;-49
2024/02/29 20:13:24;;;;;;;13.55;3.50;;;24.10;41.00;;;;;;10351098;28;20164;-57
2024/02/29 20:18:27;;;;;;;12.57;3.00;;;24.60;39.90;;;;;;10354387;28;20508;-49
2024/02/29 20:23:30;;;;;;;5.75;3.03;;;24.80;39.70;;;;;;10353430;28;20046;-49
2024/02/29 20:28:31;;;;;;;8.65;2.97;;;25.00;39.50;;;;;;10346885;28;20056;-54
2024/02/29 20:33:33;;;;;;;6.10;2.88;;;25.10;39.40;;;;;;10351961;28;20038;-50
2024/02/29 20:38:36;;;;;;;14.70;2.97;;;25.20;39.30;;;;;;10348313;28;20141;-52
2024/02/29 20:43:38;;;;;;;11.52;2.97;;;25.10;39.50;;;;;;10348684;28;20149;-52
2024/02/29 20:48:42;;;;;;;6.78;3.28;;;24.90;40.00;;;;;;10348564;28;20121;-49
2024/02/29 20:53:45;;;;;;;9.38;2.90;;;24.90;39.40;;;;;;10351613;28;20042;-50
2024/02/29 20:58:47;;;;;;;6.07;3.22;;;24.70;39.60;;;;;;10355580;28;20132;-53
2024/02/29 21:03:49;;;;;;;9.55;3.60;;;24.70;39.60;;;;;;10358990;28;20133;-49
2024/02/29 21:08:52;;;;;;;4.07;2.90;;;24.50;39.80;;;;;;10360602;28;20050;-54
2024/02/29 21:13:54;;;;;;;11.27;2.92;;;24.20;40.00;;;;;;10362851;28;20121;-56
2024/02/29 21:18:56;;;;;;;6.55;2.67;;;24.10;40.30;;;;;;10361808;28;20053;-52
2024/02/29 21:23:59;;;;;;;6.63;2.60;;;24.20;40.00;;;;;;10361932;28;20508;-54
2024/02/29 21:29:02;;;;;;;6.88;2.85;;;24.20;40.00;;;;;;10359676;28;20496;-50
2024/02/29 21:34:04;;;;;;;2.38;2.17;;;24.10;40.10;;;;;;10352192;28;20046;-53
2024/02/29 21:39:08;;;;;;;5.35;2.53;;;23.80;41.30;;;;;;10357352;28;20070;-49
2024/02/29 21:44:10;;;;;;;4.68;2.35;;;23.80;40.70;;;;;;10352559;28;20053;-48
2024/02/29 21:49:11;;;;;;;3.35;2.35;;;24.10;40.30;;;;;;10359727;28;20038;-49
2024/02/29 21:54:16;;;;;;;4.60;2.50;;;24.10;40.10;;;;;;10361554;28;20132;-52
2024/02/29 21:59:17;;;;;;;3.75;2.55;;;24.00;40.30;;;;;;10355278;28;20432;-50
2024/02/29 22:04:19;;;;;;;2.40;2.13;;;23.90;40.40;;;;;;10363972;28;20132;-54
2024/02/29 22:09:23;;;;;;;2.78;2.20;;;24.00;40.30;;;;;;10362965;28;20141;-51
2024/02/29 22:14:25;;;;;;;5.70;2.63;;;23.80;40.40;;;;;;10359301;28;20057;-49
2024/02/29 22:19:26;;;;;;;3.88;2.28;;;23.80;40.60;;;;;;10359187;28;20129;-52
2024/02/29 22:24:29;;;;;;;2.90;2.33;;;23.60;40.60;;;;;;10363005;28;20117;-54
2024/02/29 22:29:31;;;;;;;3.55;2.10;;;23.50;40.90;;;;;;10359428;28;20046;-53
2024/02/29 22:34:33;;;;;;;4.00;2.22;;;23.60;40.70;;;;;;10356417;28;20054;-54
2024/02/29 22:39:35;;;;;;;2.38;2.17;;;23.50;40.70;;;;;;10358170;28;20478;-48
2024/02/29 22:44:38;;;;;;;2.60;2.17;;;23.50;40.80;;;;;;10359014;28;20125;-52
2024/02/29 22:49:39;;;;;;;3.35;2.25;;;23.50;41.00;;;;;;10353990;28;20046;-57
2024/02/29 22:54:42;;;;;;;4.28;2.40;;;23.50;40.90;;;;;;10354621;28;20129;-51
2024/02/29 22:59:44;;;;;;;2.20;2.00;;;23.40;40.90;;;;;;10357713;28;20129;-51
2024/02/29 23:04:45;;;;;;;2.65;2.42;;;23.40;40.90;;;;;;10357312;28;20563;-48
2024/02/29 23:09:48;;;;;;;2.30;2.10;;;23.20;41.00;;;;;;10355554;28;20075;-56
2024/02/29 23:14:50;;;;;;;2.92;2.03;;;23.20;41.00;;;;;;10357562;28;20046;-53
2024/02/29 23:19:52;;;;;;;3.38;2.28;;;23.30;40.80;;;;;;10360619;28;20135;-53
2024/02/29 23:24:55;;;;;;;2.25;2.05;;;23.10;41.10;;;;;;10359227;28;20548;-51
2024/02/29 23:29:56;;;;;;;2.28;2.08;;;23.10;41.00;;;;;;10358417;28;20141;-49
2024/02/29 23:34:58;;;;;;;2.30;2.10;;;23.10;40.90;;;;;;10362291;28;20136;-51
2024/02/29 23:40:01;;;;;;;3.58;2.15;;;23.20;41.00;;;;;;10359342;28;20138;-52
2024/02/29 23:45:02;;;;;;;2.38;2.17;;;23.10;40.90;;;;;;10351286;28;20164;-47
2024/02/29 23:50:05;;;;;;;2.65;2.33;;;23.10;40.90;;;;;;10352207;28;20140;-51
2024/02/29 23:55:09;;;;;;;2.47;2.10;;;23.20;40.90;;;;;;10344011;28;20057;-50
